ADDS METAR Data INFO
IDs: Format: Raw Decoded Include TAF

Data at: 0856 UTC 22 Feb 2018

KLGB 220853Z AUTO 00000KT 10SM CLR 08/01 A3018 RMK AO2 SLP220 T00830011 53006 $
KLGB 220753Z AUTO 00000KT 10SM CLR 09/00 A3017 RMK AO2 SLP216 T00940000 401670067 $
KLGB 220653Z AUTO 00000KT 10SM CLR 11/M01 A3017 RMK AO2 SLP217 T01111006 $
KLGB 220553Z 29004KT 10SM CLR 11/01 A3016 RMK AO2 SLP214 T01110006 10161 20106 53008 $
KLGB 220453Z 28006KT 10SM CLR 13/01 A3016 RMK AO2 SLP211 T01280006 $
KLGB 220353Z 28005KT 10SM CLR 13/01 A3015 RMK AO2 SLP209 T01280011 $
KLGB 212353Z 27010KT 10SM CLR 16/M01 A3010 RMK AO2 SLP193 T01611011 10167 20133 56008 $
KLGB 212253Z 24007G17KT 10SM CLR 16/M03 A3011 RMK AO2 SLP195 T01611028 $
KLGB 212153Z 21009KT 190V260 10SM FEW085 17/M01 A3011 RMK AO2 SLP196 T01671011 $
KLGB 212053Z 22008KT 10SM BKN085 15/01 A3013 RMK AO2 SLP201 T01500011 58009 $
KLGB 211953Z 17007KT 10SM FEW044 BKN060 BKN080 14/03 A3014 RMK AO2 SLP204 T01440028 $
KLGB 211853Z 06005KT 10SM BKN041 15/03 A3015 RMK AO2 SLP209 T01500033 $
KLGB 211753Z 16004KT 10SM CLR 14/02 A3015 RMK AO2 SLP210 T01390017 10139 20083 51008 $
KLGB 211653Z 10006KT 10SM CLR 13/M03 A3015 RMK AO2 SLP207 T01281028 $
KLGB 211553Z 06004KT 10SM SCT046 11/M03 A3014 RMK AO2 SLP205 T01061033 $
KLGB 211453Z 04003KT 10SM OVC090 09/M04 A3013 RMK AO2 SLP201 T00941039 53010 $
KLGB 211353Z AUTO 00000KT 10SM OVC090 09/M04 A3011 RMK AO2 SLP195 T00891044 $
KLGB 211253Z AUTO 00000KT 10SM BKN095 08/M04 A3010 RMK AO2 SLP192 T00831039 $
KLGB 210753Z AUTO 13003KT 10SM CLR 08/M01 A3013 RMK AO2 SLP203 T00831011 401560039 $
KLGB 210653Z 13003KT 10SM CLR 10/M03 A3014 RMK AO2 SLP207 T01001028 $
KLGB 210553Z 00000KT 10SM CLR 10/M03 A3015 RMK AO2 SLP208 T01001028 10156 20100 51006 $